createdAt,value
2023-03-28T00:02:25.381Z,3.40
2023-03-28T00:05:12.332Z,3.40
2023-03-28T00:08:00.918Z,3.40
2023-03-28T00:10:47.514Z,3.30
2023-03-28T00:13:34.642Z,3.30
2023-03-28T00:16:21.624Z,3.20
2023-03-28T00:19:10.248Z,3.20
2023-03-28T00:21:57.474Z,3.20
2023-03-28T00:24:45.335Z,3.20
2023-03-28T00:27:33.414Z,3.30
2023-03-28T00:30:20.087Z,3.30
2023-03-28T00:33:06.643Z,3.30
2023-03-28T00:35:53.606Z,3.40
2023-03-28T00:38:40.101Z,3.60
2023-03-28T00:41:31.132Z,3.60
2023-03-28T00:44:44.503Z,3.70
2023-03-28T00:47:40.755Z,3.80
2023-03-28T00:50:30.732Z,3.90
2023-03-28T00:53:21.050Z,3.80
2023-03-28T00:56:11.519Z,3.80
2023-03-28T00:59:02.896Z,3.80
2023-03-28T01:01:49.530Z,3.80
2023-03-28T01:04:42.568Z,3.80
2023-03-28T01:07:35.207Z,3.80
2023-03-28T01:10:23.196Z,3.80
2023-03-28T01:13:10.672Z,3.70
2023-03-28T01:16:00.193Z,3.70
2023-03-28T01:18:51.535Z,3.70
2023-03-28T01:22:10.944Z,3.60
2023-03-28T01:25:24.789Z,3.60
2023-03-28T01:28:24.020Z,3.70
2023-03-28T01:31:33.408Z,3.80
2023-03-28T01:34:44.296Z,3.80
2023-03-28T01:37:42.784Z,3.80
2023-03-28T01:40:37.984Z,3.80
2023-03-28T01:43:34.495Z,3.80
2023-03-28T01:46:27.197Z,3.70
2023-03-28T01:49:20.455Z,3.70
2023-03-28T01:52:16.759Z,3.60
2023-03-28T01:55:10.549Z,3.50
2023-03-28T01:58:05.215Z,3.40
2023-03-28T02:00:57.241Z,3.40
2023-03-28T02:03:49.621Z,3.40
2023-03-28T02:06:39.523Z,3.40
2023-03-28T02:09:27.824Z,3.40
2023-03-28T02:12:21.010Z,3.40
2023-03-28T02:15:13.797Z,3.30
2023-03-28T02:18:04.360Z,3.20
2023-03-28T02:20:56.681Z,3.20
2023-03-28T02:23:47.918Z,3.20
2023-03-28T02:26:34.502Z,3.10
2023-03-28T02:29:23.185Z,3.10
2023-03-28T02:32:09.852Z,3.00
2023-03-28T02:34:56.956Z,3.00
2023-03-28T02:37:50.268Z,3.00
2023-03-28T02:40:46.485Z,3.00
2023-03-28T02:43:49.585Z,3.10
2023-03-28T02:46:47.443Z,3.00
2023-03-28T02:49:50.506Z,3.00
2023-03-28T02:52:51.415Z,2.90
2023-03-28T02:55:44.565Z,3.00
2023-03-28T02:58:37.670Z,2.90
2023-03-28T03:01:29.348Z,2.90
2023-03-28T03:04:17.871Z,2.90
2023-03-28T03:07:04.502Z,2.90
2023-03-28T03:09:53.642Z,2.90
2023-03-28T03:12:41.232Z,2.90
2023-03-28T03:15:30.867Z,2.90
2023-03-28T03:18:17.968Z,2.90
2023-03-28T03:21:06.749Z,2.90
2023-03-28T03:23:53.384Z,2.80
2023-03-28T03:26:40.708Z,2.80
2023-03-28T03:29:26.942Z,2.80
2023-03-28T03:32:25.473Z,2.80
2023-03-28T03:35:12.295Z,2.80
2023-03-28T03:38:00.115Z,2.80
2023-03-28T03:40:46.534Z,2.80
2023-03-28T03:43:34.211Z,2.80
2023-03-28T03:46:20.850Z,2.80
2023-03-28T03:49:07.422Z,2.80
2023-03-28T03:51:53.811Z,2.80
2023-03-28T03:54:41.528Z,2.80
2023-03-28T03:57:28.281Z,2.80
2023-03-28T04:00:16.652Z,2.80
2023-03-28T04:03:03.405Z,2.90
2023-03-28T04:05:49.866Z,2.90
2023-03-28T04:08:36.969Z,2.90
2023-03-28T04:11:24.849Z,2.90
2023-03-28T04:14:11.273Z,2.70
2023-03-28T04:16:57.853Z,2.80
2023-03-28T04:19:45.532Z,2.80
2023-03-28T04:22:32.127Z,2.80
2023-03-28T04:25:18.711Z,2.80
2023-03-28T04:28:09.323Z,2.80
2023-03-28T04:30:58.162Z,2.80
2023-03-28T04:33:45.327Z,2.80
2023-03-28T04:36:32.132Z,2.80
2023-03-28T04:39:21.856Z,2.90
2023-03-28T04:42:08.988Z,2.80
2023-03-28T04:44:57.057Z,2.90
2023-03-28T04:47:43.500Z,2.90
2023-03-28T04:50:29.847Z,2.80
2023-03-28T04:53:17.346Z,2.80
2023-03-28T04:56:03.789Z,2.70
2023-03-28T04:58:50.034Z,2.80
2023-03-28T05:01:37.778Z,2.80
2023-03-28T05:04:26.632Z,2.70
2023-03-28T05:07:12.999Z,2.60
2023-03-28T05:09:59.248Z,2.60
2023-03-28T05:12:45.670Z,2.70
2023-03-28T05:15:32.305Z,2.60
2023-03-28T05:18:20.305Z,2.70
2023-03-28T05:21:07.306Z,2.70
2023-03-28T05:23:53.939Z,2.70
2023-03-28T05:26:40.551Z,2.80
2023-03-28T05:29:26.969Z,3.00
2023-03-28T05:32:13.838Z,3.00
2023-03-28T05:35:02.035Z,3.10
2023-03-28T05:37:48.695Z,3.20
2023-03-28T05:40:35.364Z,3.40
2023-03-28T05:43:21.890Z,3.60
2023-03-28T05:46:08.640Z,3.70
2023-03-28T05:48:55.689Z,4.00
2023-03-28T05:51:43.447Z,4.20
2023-03-28T05:54:29.947Z,4.50
2023-03-28T05:57:16.649Z,4.60
2023-03-28T06:00:13.612Z,4.80
2023-03-28T06:03:00.358Z,5.00
2023-03-28T06:05:47.068Z,5.00
2023-03-28T06:08:34.936Z,5.30
2023-03-28T06:11:21.815Z,5.40
2023-03-28T06:14:08.623Z,5.60
2023-03-28T06:16:55.216Z,5.70
2023-03-28T06:19:42.057Z,5.80
2023-03-28T06:22:29.225Z,6.00
2023-03-28T06:25:17.400Z,6.20
2023-03-28T06:28:03.898Z,6.50
2023-03-28T06:30:50.968Z,6.50
2023-03-28T06:33:40.859Z,6.80
2023-03-28T06:36:27.151Z,6.90
2023-03-28T06:39:13.899Z,7.20
2023-03-28T06:42:03.399Z,7.30
2023-03-28T06:44:50.288Z,7.30
2023-03-28T06:47:36.846Z,7.30
2023-03-28T06:50:23.262Z,7.60
2023-03-28T07:01:23.205Z,8.00
2023-03-28T07:04:10.076Z,8.20
2023-03-28T07:06:56.903Z,8.30
2023-03-28T07:09:43.395Z,8.50
2023-03-28T07:12:29.884Z,8.60
2023-03-28T07:15:17.755Z,8.60
2023-03-28T07:18:10.563Z,8.70
2023-03-28T07:21:03.873Z,8.80
2023-03-28T07:23:51.432Z,8.80
2023-03-28T07:26:40.813Z,8.70
2023-03-28T07:29:27.383Z,8.70
2023-03-28T07:32:14.183Z,9.00
2023-03-28T07:35:02.033Z,9.10
2023-03-28T07:37:48.808Z,9.30
2023-03-28T07:40:35.548Z,9.60
2023-03-28T07:43:21.893Z,9.70
2023-03-28T07:46:10.311Z,9.60
2023-03-28T07:48:57.062Z,9.70
2023-03-28T07:51:44.996Z,10.30
2023-03-28T07:54:33.107Z,10.60
2023-03-28T07:57:19.694Z,10.70
2023-03-28T08:00:13.199Z,10.60
2023-03-28T08:02:59.992Z,10.20
2023-03-28T08:05:51.432Z,9.90
2023-03-28T08:08:39.348Z,9.90
2023-03-28T08:11:27.092Z,9.80
2023-03-28T08:14:15.387Z,10.10
2023-03-28T08:17:02.123Z,10.10
2023-03-28T08:19:48.543Z,9.90
2023-03-28T08:22:34.830Z,10.30
2023-03-28T08:25:22.848Z,10.50
2023-03-28T08:28:11.249Z,10.50
2023-03-28T08:30:57.778Z,10.60
2023-03-28T08:33:47.136Z,10.40
2023-03-28T08:36:33.746Z,10.40
2023-03-28T08:39:20.142Z,10.60
2023-03-28T08:42:32.236Z,10.40
2023-03-28T08:45:34.847Z,10.30
2023-03-28T08:48:27.068Z,10.30
2023-03-28T08:51:20.591Z,10.30
2023-03-28T08:54:13.629Z,10.20
2023-03-28T08:57:04.672Z,10.00
2023-03-28T09:00:01.532Z,9.70
2023-03-28T09:02:50.476Z,9.60
2023-03-28T09:05:45.654Z,9.70
2023-03-28T09:08:52.701Z,9.80
2023-03-28T09:11:50.406Z,9.70
2023-03-28T09:15:04.527Z,9.50
2023-03-28T09:18:07.405Z,9.60
2023-03-28T09:20:58.850Z,10.00
2023-03-28T09:24:18.207Z,10.10
2023-03-28T09:27:07.689Z,9.90
2023-03-28T09:29:58.971Z,10.00
2023-03-28T09:32:45.900Z,10.50
2023-03-28T09:35:35.244Z,10.90
2023-03-28T09:38:25.226Z,11.30
2023-03-28T09:41:17.876Z,11.50
2023-03-28T09:44:06.719Z,11.60
2023-03-28T09:46:55.105Z,11.30
2023-03-28T09:49:41.546Z,10.80
2023-03-28T09:52:31.703Z,10.20
2023-03-28T09:55:20.740Z,10.20
2023-03-28T09:58:09.344Z,10.20
2023-03-28T10:00:56.486Z,10.40
2023-03-28T10:03:53.239Z,10.50
2023-03-28T10:06:41.679Z,10.80
2023-03-28T10:09:29.640Z,11.10
2023-03-28T10:12:21.224Z,11.10
2023-03-28T10:15:30.461Z,10.90
2023-03-28T10:18:19.651Z,10.60
2023-03-28T10:21:13.397Z,10.30
2023-03-28T10:24:04.147Z,9.80
2023-03-28T10:26:52.116Z,9.60
2023-03-28T10:29:39.773Z,9.30
2023-03-28T10:32:28.557Z,9.20
2023-03-28T10:35:25.741Z,9.30
2023-03-28T10:38:18.112Z,9.50
2023-03-28T10:41:08.387Z,9.60
2023-03-28T10:43:57.777Z,9.80
2023-03-28T10:46:44.554Z,9.80
2023-03-28T10:49:41.650Z,9.60
2023-03-28T10:52:37.638Z,9.60
2023-03-28T10:55:30.875Z,9.50
2023-03-28T10:58:25.524Z,9.70
2023-03-28T11:01:19.466Z,9.90
2023-03-28T11:04:24.621Z,10.10
2023-03-28T11:07:17.448Z,10.30
2023-03-28T11:10:12.142Z,10.10
2023-03-28T11:13:09.727Z,10.10
2023-03-28T11:16:02.238Z,9.80
2023-03-28T11:19:01.739Z,9.60
2023-03-28T11:21:55.862Z,9.40
2023-03-28T11:24:50.602Z,9.40
2023-03-28T11:27:43.905Z,9.40
2023-03-28T11:30:33.360Z,9.30
2023-03-28T11:33:25.955Z,9.40
2023-03-28T11:36:16.462Z,9.50
2023-03-28T11:39:11.400Z,9.70
2023-03-28T11:42:02.220Z,9.90
2023-03-28T11:44:59.753Z,9.70
2023-03-28T11:47:52.161Z,9.80
2023-03-28T11:50:50.004Z,9.80
2023-03-28T11:53:44.009Z,9.90
2023-03-28T11:56:43.566Z,10.00
2023-03-28T11:59:38.029Z,10.10
2023-03-28T12:02:40.997Z,10.40
2023-03-28T12:05:32.982Z,10.70
2023-03-28T12:08:24.541Z,10.90
2023-03-28T12:11:20.024Z,10.90
2023-03-28T12:14:17.767Z,10.70
2023-03-28T12:17:11.674Z,10.20
2023-03-28T12:22:50.305Z,8.70
2023-03-28T12:25:42.765Z,8.80
2023-03-28T12:28:38.773Z,9.00
2023-03-28T12:31:29.502Z,9.20
2023-03-28T12:34:24.899Z,9.20
2023-03-28T12:37:17.908Z,9.10
2023-03-28T12:40:19.874Z,8.90
2023-03-28T12:43:08.452Z,8.80
2023-03-28T12:46:01.139Z,8.70
2023-03-28T12:48:50.950Z,8.90
2023-03-28T12:51:40.241Z,9.10
2023-03-28T12:54:32.011Z,9.20
2023-03-28T12:57:43.416Z,9.30
2023-03-28T13:00:36.131Z,9.50
2023-03-28T13:03:36.012Z,9.80
2023-03-28T13:06:29.392Z,9.80
2023-03-28T13:09:33.002Z,9.60
2023-03-28T13:12:35.724Z,9.80
2023-03-28T13:15:31.029Z,10.00
2023-03-28T13:18:31.635Z,10.10
2023-03-28T13:21:43.106Z,10.20
2023-03-28T13:24:32.433Z,10.20
2023-03-28T13:27:30.878Z,10.10
2023-03-28T13:30:18.775Z,10.00
2023-03-28T13:33:13.852Z,10.10
2023-03-28T13:36:32.531Z,10.10
2023-03-28T13:39:24.961Z,10.30
2023-03-28T13:42:28.086Z,10.50
2023-03-28T13:45:22.955Z,10.60
2023-03-28T13:48:13.595Z,10.80
2023-03-28T13:51:03.889Z,10.70
2023-03-28T13:53:51.903Z,10.70
2023-03-28T13:56:40.772Z,10.70
2023-03-28T13:59:35.999Z,10.50
2023-03-28T14:02:32.026Z,10.30
2023-03-28T14:05:22.543Z,10.20
2023-03-28T14:08:22.447Z,10.10
2023-03-28T14:11:11.726Z,10.10
2023-03-28T14:14:06.117Z,9.90
2023-03-28T14:16:55.529Z,10.20
2023-03-28T14:19:45.874Z,10.30
2023-03-28T14:22:37.431Z,10.30
2023-03-28T14:25:30.812Z,10.40
2023-03-28T14:28:18.882Z,10.40
2023-03-28T14:31:07.362Z,10.40
2023-03-28T14:33:54.232Z,10.40
2023-03-28T14:36:59.470Z,10.40
2023-03-28T14:39:47.158Z,10.50
2023-03-28T14:42:33.542Z,10.40
2023-03-28T14:45:22.800Z,10.50
2023-03-28T14:48:13.834Z,10.50
2023-03-28T14:51:03.875Z,10.50
2023-03-28T14:53:51.700Z,10.50
2023-03-28T14:56:38.525Z,10.50
2023-03-28T14:59:33.314Z,10.40
2023-03-28T15:02:26.328Z,10.30
2023-03-28T15:05:16.353Z,10.40
2023-03-28T15:08:04.703Z,10.30
2023-03-28T15:10:54.325Z,10.00
2023-03-28T15:13:43.070Z,9.90
2023-03-28T15:16:31.326Z,9.90
2023-03-28T15:19:23.282Z,9.80
2023-03-28T15:22:13.005Z,9.90
2023-03-28T15:25:00.251Z,9.80
2023-03-28T15:27:50.916Z,9.70
2023-03-28T15:30:43.617Z,9.60
2023-03-28T15:33:34.599Z,9.50
2023-03-28T15:36:25.922Z,9.60
2023-03-28T15:39:19.366Z,9.50
2023-03-28T15:42:36.369Z,9.40
2023-03-28T15:45:40.923Z,9.20
2023-03-28T15:48:29.823Z,9.00
2023-03-28T15:51:18.081Z,9.10
2023-03-28T15:54:14.614Z,9.10
2023-03-28T15:57:07.822Z,9.10
2023-03-28T15:59:56.434Z,9.00
2023-03-28T16:02:44.018Z,8.90
2023-03-28T16:05:37.654Z,9.00
2023-03-28T16:08:27.210Z,8.90
2023-03-28T16:11:19.336Z,8.80
2023-03-28T16:14:06.051Z,8.80
2023-03-28T16:16:55.457Z,8.70
2023-03-28T16:19:43.814Z,8.70
2023-03-28T16:22:30.201Z,8.60
2023-03-28T16:25:16.697Z,8.60
2023-03-28T16:28:04.371Z,8.60
2023-03-28T16:30:52.913Z,8.70
2023-03-28T16:33:39.681Z,8.60
2023-03-28T16:36:26.237Z,8.50
2023-03-28T16:39:12.853Z,8.50
2023-03-28T16:41:59.470Z,8.40
2023-03-28T16:44:47.171Z,8.30
2023-03-28T16:47:33.714Z,8.30
2023-03-28T16:50:20.247Z,8.30
2023-03-28T16:53:07.210Z,8.30
2023-03-28T16:55:53.602Z,8.20
2023-03-28T16:58:40.338Z,8.30
2023-03-28T17:01:28.226Z,8.10
2023-03-28T17:04:14.712Z,8.20
2023-03-28T17:07:01.280Z,8.20
2023-03-28T17:09:48.364Z,8.20
2023-03-28T17:12:34.818Z,8.10
2023-03-28T17:15:21.797Z,8.10
2023-03-28T17:18:10.998Z,8.10
2023-03-28T17:21:01.835Z,8.00
2023-03-28T17:23:50.880Z,7.90
2023-03-28T17:26:37.085Z,7.90
2023-03-28T17:29:23.688Z,7.80
2023-03-28T17:32:10.143Z,7.70
2023-03-28T17:34:57.965Z,7.70
2023-03-28T17:37:45.360Z,7.60
2023-03-28T17:40:32.086Z,7.60
2023-03-28T17:43:19.020Z,7.50
2023-03-28T17:46:06.307Z,7.60
2023-03-28T17:48:53.157Z,7.50
2023-03-28T17:51:41.067Z,7.40
2023-03-28T17:54:27.492Z,7.40
2023-03-28T17:57:14.121Z,7.30
2023-03-28T18:00:02.280Z,7.20
2023-03-28T18:02:50.802Z,7.30
2023-03-28T18:05:37.854Z,7.30
2023-03-28T18:08:25.673Z,7.30
2023-03-28T18:11:14.598Z,7.30
2023-03-28T18:14:00.998Z,7.30
2023-03-28T18:16:47.608Z,7.20
2023-03-28T18:19:33.940Z,7.20
2023-03-28T18:22:20.348Z,7.20
2023-03-28T18:25:09.229Z,7.20
2023-03-28T18:27:55.926Z,7.20
2023-03-28T18:30:44.428Z,7.20
2023-03-28T18:33:31.210Z,7.10
2023-03-28T18:36:17.671Z,7.10
2023-03-28T18:39:05.468Z,7.20
2023-03-28T18:41:53.310Z,7.00
2023-03-28T18:44:41.836Z,7.10
2023-03-28T18:47:28.588Z,7.10
2023-03-28T18:50:15.878Z,7.00
2023-03-28T18:53:03.106Z,7.00
2023-03-28T18:55:51.692Z,6.90
2023-03-28T18:58:40.257Z,6.90
2023-03-28T19:01:26.955Z,6.90
2023-03-28T19:04:13.519Z,6.90
2023-03-28T19:07:00.446Z,6.90
2023-03-28T19:09:46.712Z,6.80
2023-03-28T19:12:35.799Z,6.80
2023-03-28T19:15:24.699Z,6.80
2023-03-28T19:18:11.216Z,6.80
2023-03-28T19:20:59.691Z,6.80
2023-03-28T19:23:48.644Z,6.90
2023-03-28T19:26:35.243Z,7.00
2023-03-28T19:29:21.654Z,7.10
2023-03-28T19:32:09.437Z,7.10
2023-03-28T19:34:55.879Z,7.10
2023-03-28T19:37:42.324Z,7.00
2023-03-28T19:40:28.769Z,7.00
2023-03-28T19:43:20.850Z,7.00
2023-03-28T19:46:08.918Z,7.10
2023-03-28T19:48:57.445Z,7.10
2023-03-28T19:51:44.126Z,7.10
2023-03-28T19:54:30.639Z,7.10
2023-03-28T19:57:17.583Z,7.10
2023-03-28T20:00:05.168Z,7.10
2023-03-28T20:02:51.713Z,7.00
2023-03-28T20:05:43.222Z,6.80
2023-03-28T20:08:29.824Z,6.90
2023-03-28T20:11:17.130Z,6.90
2023-03-28T20:14:03.493Z,6.70
2023-03-28T20:16:50.315Z,6.70
2023-03-28T20:19:37.034Z,6.70
2023-03-28T20:22:25.644Z,6.60
2023-03-28T20:25:12.184Z,6.50
2023-03-28T20:27:59.315Z,6.40
2023-03-28T20:30:46.335Z,6.40
2023-03-28T20:33:33.090Z,6.30
2023-03-28T20:36:19.691Z,6.40
2023-03-28T20:39:08.855Z,6.30
2023-03-28T20:41:55.801Z,6.30
2023-03-28T20:44:42.471Z,6.20
2023-03-28T20:47:30.340Z,6.20
2023-03-28T20:50:17.121Z,6.20
2023-03-28T20:53:05.412Z,6.10
2023-03-28T20:56:01.650Z,6.10
2023-03-28T20:58:50.461Z,6.10
2023-03-28T21:01:39.400Z,6.10
2023-03-28T21:04:27.671Z,6.10
2023-03-28T21:07:14.080Z,6.10
2023-03-28T21:10:00.572Z,6.20
2023-03-28T21:12:49.115Z,6.30
2023-03-28T21:15:35.600Z,6.30
2023-03-28T21:18:21.908Z,6.40
2023-03-28T21:21:11.206Z,6.50
2023-03-28T21:23:57.887Z,6.40
2023-03-28T21:26:44.250Z,6.50
2023-03-28T21:29:32.148Z,6.50
2023-03-28T21:32:18.772Z,6.50
2023-03-28T21:35:06.187Z,6.50
2023-03-28T21:37:52.828Z,6.70
2023-03-28T21:40:39.510Z,6.70
2023-03-28T21:43:26.149Z,6.70
2023-03-28T21:46:15.119Z,6.60
2023-03-28T21:49:01.605Z,6.70
2023-03-28T21:51:48.009Z,6.60
2023-03-28T21:54:34.578Z,6.60
2023-03-28T21:57:21.244Z,6.50
2023-03-28T22:00:14.897Z,6.50
2023-03-28T22:03:03.134Z,6.50
2023-03-28T22:05:53.064Z,6.50
2023-03-28T22:08:39.658Z,6.50
2023-03-28T22:11:30.626Z,6.40
2023-03-28T22:14:17.544Z,6.30
2023-03-28T22:17:04.129Z,6.40
2023-03-28T22:19:53.874Z,6.40
2023-03-28T22:22:42.488Z,6.30
2023-03-28T22:25:35.607Z,6.30
2023-03-28T22:28:24.831Z,6.30
2023-03-28T22:31:12.108Z,6.20
2023-03-28T22:33:58.607Z,6.30
2023-03-28T22:36:46.407Z,6.20
2023-03-28T22:39:32.922Z,6.20
2023-03-28T22:42:19.265Z,6.20
2023-03-28T22:45:06.466Z,6.10
2023-03-28T22:47:53.193Z,6.10
2023-03-28T22:50:39.883Z,6.10
2023-03-28T22:53:28.274Z,6.10
2023-03-28T22:56:14.665Z,6.00
2023-03-28T22:59:01.940Z,6.00
2023-03-28T23:01:48.314Z,5.90
2023-03-28T23:04:34.782Z,5.80
2023-03-28T23:07:21.134Z,5.90
2023-03-28T23:10:14.264Z,5.80
2023-03-28T23:13:01.079Z,5.80
2023-03-28T23:15:47.903Z,5.80
2023-03-28T23:18:34.736Z,5.80
2023-03-28T23:21:21.602Z,5.80
2023-03-28T23:24:08.533Z,5.70
2023-03-28T23:26:56.844Z,5.70
2023-03-28T23:29:43.520Z,5.70
2023-03-28T23:32:30.077Z,5.70
2023-03-28T23:35:17.266Z,5.80
2023-03-28T23:38:03.823Z,5.70
2023-03-28T23:40:50.808Z,5.80
2023-03-28T23:43:41.134Z,5.90
2023-03-28T23:46:27.923Z,5.90
2023-03-28T23:49:14.332Z,5.80
2023-03-28T23:52:00.901Z,5.80
2023-03-28T23:54:47.541Z,5.80
2023-03-28T23:57:34.283Z,5.80
